createdAt,value
2018-02-07T00:00:03.979Z,0
2018-02-07T00:01:12.802Z,0
2018-02-07T00:02:21.622Z,0
2018-02-07T00:03:30.718Z,0
2018-02-07T00:04:39.572Z,0
2018-02-07T00:05:48.364Z,0
2018-02-07T00:06:57.186Z,0
2018-02-07T00:08:06.006Z,0
2018-02-07T00:09:14.827Z,0
2018-02-07T00:10:23.651Z,0
2018-02-07T00:11:32.574Z,0
2018-02-07T00:12:41.400Z,0
2018-02-07T00:13:50.220Z,0
2018-02-07T00:14:59.039Z,0
2018-02-07T00:16:08.141Z,0
2018-02-07T00:17:16.955Z,0
2018-02-07T00:18:25.777Z,0
2018-02-07T00:19:34.599Z,0
2018-02-07T00:20:43.420Z,0
2018-02-07T00:21:52.242Z,0
2018-02-07T00:23:01.165Z,0
2018-02-07T00:24:10.269Z,0
2018-02-07T00:25:19.083Z,0
2018-02-07T00:26:27.911Z,0
2018-02-07T00:27:36.729Z,0
2018-02-07T00:28:46.024Z,0
2018-02-07T00:29:54.847Z,0
2018-02-07T00:31:03.671Z,0
2018-02-07T00:32:12.544Z,0
2018-02-07T00:33:21.314Z,0
2018-02-07T00:34:30.238Z,0
2018-02-07T00:35:39.060Z,0
2018-02-07T00:36:47.881Z,0
2018-02-07T00:37:56.702Z,0
2018-02-07T00:39:05.523Z,0
2018-02-07T00:40:14.643Z,0
2018-02-07T00:41:23.464Z,0
2018-02-07T00:42:32.287Z,0
2018-02-07T00:43:41.107Z,0
2018-02-07T00:44:49.927Z,0
2018-02-07T00:45:58.898Z,0
2018-02-07T00:47:07.719Z,0
2018-02-07T00:48:16.542Z,0
2018-02-07T00:49:25.361Z,0
2018-02-07T00:50:34.183Z,0
2018-02-07T00:51:43.155Z,0
2018-02-07T00:52:51.977Z,0
2018-02-07T00:54:00.797Z,0
2018-02-07T00:55:09.617Z,0
2018-02-07T00:56:18.440Z,0
2018-02-07T00:57:27.412Z,0
2018-02-07T00:58:36.232Z,0
2018-02-07T00:59:45.056Z,0
2018-02-07T01:00:53.871Z,0
2018-02-07T01:02:02.694Z,0
2018-02-07T01:03:11.720Z,0
2018-02-07T01:04:20.542Z,0
2018-02-07T01:05:29.363Z,0
2018-02-07T01:06:38.184Z,0
2018-02-07T01:07:47.004Z,0
2018-02-07T01:08:55.975Z,0
2018-02-07T01:10:05.071Z,0
2018-02-07T01:11:13.891Z,0
2018-02-07T01:12:22.712Z,0
2018-02-07T01:13:31.533Z,0
2018-02-07T01:14:40.630Z,0
2018-02-07T01:15:49.449Z,0
2018-02-07T01:16:58.272Z,0
2018-02-07T01:18:07.093Z,0
2018-02-07T01:19:15.913Z,0
2018-02-07T01:20:24.885Z,0
2018-02-07T01:21:33.986Z,0
2018-02-07T01:22:42.807Z,0
2018-02-07T01:23:51.629Z,0
2018-02-07T01:25:00.450Z,0
2018-02-07T01:26:09.372Z,0
2018-02-07T01:27:18.192Z,0
2018-02-07T01:28:27.015Z,0
2018-02-07T01:29:35.837Z,0
2018-02-07T01:30:44.656Z,0
2018-02-07T01:31:53.581Z,0
2018-02-07T01:33:02.673Z,0
2018-02-07T01:34:11.767Z,0
2018-02-07T01:35:20.589Z,0
2018-02-07T01:36:29.410Z,0
2018-02-07T01:37:38.331Z,0
2018-02-07T01:38:47.424Z,0
2018-02-07T01:39:56.517Z,0
2018-02-07T01:41:05.339Z,0
2018-02-07T01:42:14.158Z,0
2018-02-07T01:43:23.080Z,0
2018-02-07T01:44:31.901Z,0
2018-02-07T01:45:40.722Z,0
2018-02-07T01:46:49.542Z,0
2018-02-07T01:47:58.363Z,0
2018-02-07T01:49:07.234Z,0
2018-02-07T01:50:16.055Z,0
2018-02-07T01:51:24.878Z,0
2018-02-07T01:52:33.697Z,0
2018-02-07T01:53:42.529Z,0
2018-02-07T01:54:51.446Z,0
2018-02-07T01:56:00.267Z,0
2018-02-07T01:57:09.087Z,0
2018-02-07T01:58:17.958Z,0
2018-02-07T01:59:26.778Z,0
2018-02-07T02:00:35.748Z,0
2018-02-07T02:01:44.568Z,0
2018-02-07T02:02:53.389Z,0
2018-02-07T02:04:02.211Z,0
2018-02-07T02:05:11.030Z,0
2018-02-07T02:06:19.902Z,0
2018-02-07T02:07:28.721Z,0
2018-02-07T02:08:37.542Z,0
2018-02-07T02:09:46.363Z,0
2018-02-07T02:10:55.185Z,0
2018-02-07T02:12:04.306Z,0
2018-02-07T02:13:13.127Z,0
2018-02-07T02:14:21.947Z,0
2018-02-07T02:15:30.769Z,0
2018-02-07T02:16:39.590Z,0
2018-02-07T02:17:48.509Z,0
2018-02-07T02:18:57.331Z,0
2018-02-07T02:20:06.152Z,0
2018-02-07T02:21:14.974Z,0
2018-02-07T02:22:23.794Z,0
2018-02-07T02:23:32.815Z,0
2018-02-07T02:24:41.636Z,0
2018-02-07T02:25:50.456Z,0
2018-02-07T02:26:59.300Z,0
2018-02-07T02:28:08.099Z,0
2018-02-07T02:29:17.020Z,0
2018-02-07T02:30:25.844Z,0
2018-02-07T02:31:34.664Z,0
2018-02-07T02:32:43.485Z,0
2018-02-07T02:33:52.307Z,0
2018-02-07T02:35:01.128Z,0
2018-02-07T02:36:09.950Z,0
2018-02-07T02:37:18.774Z,0
2018-02-07T02:38:27.873Z,0
2018-02-07T02:39:36.694Z,0
2018-02-07T02:40:45.514Z,0
2018-02-07T02:41:54.338Z,0
2018-02-07T02:43:03.154Z,0
2018-02-07T02:44:11.979Z,0
2018-02-07T02:45:20.797Z,0
2018-02-07T02:46:29.897Z,0
2018-02-07T02:47:38.719Z,0
2018-02-07T02:48:47.539Z,0
2018-02-07T02:49:56.360Z,0
2018-02-07T02:51:05.182Z,0
2018-02-07T02:52:14.860Z,0
2018-02-07T02:53:23.680Z,0
2018-02-07T02:54:32.781Z,0
2018-02-07T02:55:41.875Z,0
2018-02-07T02:56:50.696Z,0
2018-02-07T02:57:59.666Z,0
2018-02-07T02:59:08.489Z,0
2018-02-07T03:00:17.308Z,0
2018-02-07T03:01:26.128Z,0
2018-02-07T03:02:34.949Z,0
2018-02-07T03:03:43.773Z,0
2018-02-07T03:04:52.594Z,0
2018-02-07T03:06:01.415Z,0
2018-02-07T03:07:10.235Z,0
2018-02-07T03:08:19.056Z,0
2018-02-07T03:09:27.977Z,0
2018-02-07T03:10:37.070Z,0
2018-02-07T03:11:45.888Z,0
2018-02-07T03:12:54.709Z,0
2018-02-07T03:14:03.531Z,0
2018-02-07T03:15:12.603Z,0
2018-02-07T03:16:21.426Z,0
2018-02-07T03:17:30.246Z,0
2018-02-07T03:18:39.067Z,0
2018-02-07T03:19:47.890Z,0
2018-02-07T03:20:56.910Z,0
2018-02-07T03:22:05.730Z,0
2018-02-07T03:23:14.550Z,0
2018-02-07T03:24:23.370Z,0
2018-02-07T03:25:32.191Z,0
2018-02-07T03:26:41.162Z,0
2018-02-07T03:27:49.982Z,0
2018-02-07T03:28:59.133Z,0
2018-02-07T03:30:07.953Z,0
2018-02-07T03:31:16.776Z,0
2018-02-07T03:32:25.901Z,0
2018-02-07T03:33:34.716Z,0
2018-02-07T03:34:43.538Z,0
2018-02-07T03:35:52.359Z,0
2018-02-07T03:37:01.451Z,0
2018-02-07T03:38:10.376Z,0
2018-02-07T03:39:19.192Z,0
2018-02-07T03:40:28.294Z,0
2018-02-07T03:41:37.162Z,0
2018-02-07T03:42:45.933Z,0
2018-02-07T03:43:54.754Z,0
2018-02-07T03:45:03.859Z,0
2018-02-07T03:46:12.677Z,0
2018-02-07T03:47:21.498Z,0
2018-02-07T03:48:30.319Z,0
2018-02-07T03:49:39.196Z,0
2018-02-07T03:50:48.009Z,0
2018-02-07T03:51:56.828Z,0
2018-02-07T03:53:05.923Z,0
2018-02-07T03:54:14.743Z,0
2018-02-07T03:55:23.815Z,0
2018-02-07T03:56:32.633Z,0
2018-02-07T03:57:41.455Z,0
2018-02-07T03:58:50.276Z,0
2018-02-07T03:59:59.098Z,0
2018-02-07T04:01:08.169Z,0
2018-02-07T04:02:16.988Z,0
2018-02-07T04:03:25.808Z,0
2018-02-07T04:04:34.629Z,0
2018-02-07T04:05:43.449Z,0
2018-02-07T04:06:52.270Z,0
2018-02-07T04:08:01.089Z,0
2018-02-07T04:09:09.908Z,0
2018-02-07T04:10:18.730Z,0
2018-02-07T04:11:27.550Z,0
2018-02-07T04:12:36.470Z,0
2018-02-07T04:13:45.289Z,0
2018-02-07T04:14:54.108Z,0
2018-02-07T04:16:02.931Z,0
2018-02-07T04:17:11.751Z,0
2018-02-07T04:18:21.199Z,0
2018-02-07T04:19:30.290Z,0
2018-02-07T04:20:39.110Z,0
2018-02-07T04:21:47.929Z,0
2018-02-07T04:22:56.750Z,0
2018-02-07T04:24:05.872Z,0
2018-02-07T04:25:14.696Z,0
2018-02-07T04:26:23.513Z,0
2018-02-07T04:27:32.332Z,0
2018-02-07T04:28:41.158Z,0
2018-02-07T04:29:50.250Z,0
2018-02-07T04:30:59.069Z,0
2018-02-07T04:32:07.889Z,0
2018-02-07T04:33:16.712Z,0
2018-02-07T04:34:25.530Z,0
2018-02-07T04:35:34.501Z,0
2018-02-07T04:36:43.320Z,0
2018-02-07T04:37:52.143Z,0
2018-02-07T04:39:00.965Z,0
2018-02-07T04:40:09.784Z,0
2018-02-07T04:41:18.755Z,0
2018-02-07T04:42:27.575Z,0
2018-02-07T04:43:36.396Z,0
2018-02-07T04:44:45.216Z,0
2018-02-07T04:45:54.035Z,0
2018-02-07T04:47:02.956Z,0
2018-02-07T04:48:12.051Z,0
2018-02-07T04:49:20.874Z,0
2018-02-07T04:50:29.692Z,0
2018-02-07T04:51:38.514Z,0
2018-02-07T04:52:47.683Z,0
2018-02-07T04:53:56.500Z,0
2018-02-07T04:55:05.325Z,0
2018-02-07T04:56:14.144Z,0
2018-02-07T04:57:22.967Z,0
2018-02-07T04:58:31.933Z,0
2018-02-07T04:59:40.753Z,0
2018-02-07T05:00:49.573Z,0
2018-02-07T05:01:58.394Z,0
2018-02-07T05:03:07.215Z,0
2018-02-07T05:04:16.135Z,0
2018-02-07T05:05:24.952Z,0
2018-02-07T05:06:33.770Z,0
2018-02-07T05:07:42.591Z,0
2018-02-07T05:08:51.410Z,0
2018-02-07T05:10:00.537Z,0
2018-02-07T05:11:09.351Z,0
2018-02-07T05:12:18.170Z,0
2018-02-07T05:13:26.989Z,0
2018-02-07T05:14:35.813Z,0
2018-02-07T05:15:44.784Z,0
2018-02-07T05:16:53.604Z,0
2018-02-07T05:18:02.422Z,0
2018-02-07T05:19:11.239Z,0
2018-02-07T05:20:20.060Z,0
2018-02-07T05:21:29.127Z,0
2018-02-07T05:22:38.228Z,0
2018-02-07T05:23:47.049Z,0
2018-02-07T05:24:55.935Z,0
2018-02-07T05:26:04.761Z,0
2018-02-07T05:27:13.583Z,0
2018-02-07T05:28:22.401Z,0
2018-02-07T05:29:31.273Z,0
2018-02-07T05:30:40.094Z,0
2018-02-07T05:31:48.915Z,0
2018-02-07T05:32:57.732Z,0
2018-02-07T05:34:06.554Z,0
2018-02-07T05:35:15.372Z,0
2018-02-07T05:36:24.196Z,0
2018-02-07T05:37:33.165Z,0
2018-02-07T05:38:41.983Z,0
2018-02-07T05:39:50.801Z,0
2018-02-07T05:40:59.621Z,0
2018-02-07T05:42:08.442Z,0
2018-02-07T05:43:17.413Z,0
2018-02-07T05:44:26.234Z,0
2018-02-07T05:45:35.055Z,0
2018-02-07T05:46:44.147Z,0
2018-02-07T05:47:52.967Z,0
2018-02-07T05:49:01.793Z,0
2018-02-07T05:50:10.611Z,0
2018-02-07T05:51:19.482Z,0
2018-02-07T05:52:28.302Z,0
2018-02-07T05:53:37.125Z,0
2018-02-07T05:54:46.044Z,0
2018-02-07T05:55:54.863Z,0
2018-02-07T05:57:03.682Z,0
2018-02-07T05:58:12.505Z,0
2018-02-07T05:59:21.595Z,0
2018-02-07T06:00:30.567Z,0
2018-02-07T06:01:39.386Z,0
2018-02-07T06:02:48.208Z,0
2018-02-07T06:03:57.026Z,0
2018-02-07T06:05:05.845Z,0
2018-02-07T06:06:14.816Z,0
2018-02-07T06:07:23.638Z,0
2018-02-07T06:08:32.462Z,0
2018-02-07T06:09:41.553Z,0
2018-02-07T06:10:50.373Z,0
2018-02-07T06:11:59.494Z,0
2018-02-07T06:13:08.313Z,0
2018-02-07T06:14:17.134Z,0
2018-02-07T06:15:25.953Z,0
2018-02-07T06:16:34.772Z,0
2018-02-07T06:17:43.743Z,0
2018-02-07T06:18:52.565Z,0
2018-02-07T06:20:01.383Z,0
2018-02-07T06:21:10.203Z,0
2018-02-07T06:22:19.024Z,0
2018-02-07T06:23:28.216Z,0
2018-02-07T06:24:37.041Z,0
2018-02-07T06:25:46.131Z,0
2018-02-07T06:26:55.225Z,0
2018-02-07T06:28:04.046Z,0
2018-02-07T06:29:13.250Z,0
2018-02-07T06:30:22.087Z,4
2018-02-07T06:31:30.890Z,0
2018-02-07T06:32:39.709Z,0
2018-02-07T06:33:48.528Z,4
2018-02-07T06:34:57.499Z,4
2018-02-07T06:36:06.322Z,4
2018-02-07T06:37:15.142Z,4
2018-02-07T06:38:23.962Z,4
2018-02-07T06:39:32.781Z,8
2018-02-07T06:40:41.757Z,8
2018-02-07T06:41:50.572Z,12
2018-02-07T06:42:59.393Z,12
2018-02-07T06:44:08.216Z,16
2018-02-07T06:45:17.034Z,20
2018-02-07T06:46:25.960Z,20
2018-02-07T06:47:34.780Z,28
2018-02-07T06:48:43.874Z,28
2018-02-07T06:49:52.694Z,36
2018-02-07T06:51:01.515Z,36
2018-02-07T06:52:10.659Z,44
2018-02-07T06:53:19.480Z,48
2018-02-07T06:54:28.301Z,56
2018-02-07T06:55:37.122Z,64
2018-02-07T06:56:45.941Z,72
2018-02-07T06:57:54.909Z,80
2018-02-07T06:59:03.728Z,88
2018-02-07T07:00:12.547Z,96
2018-02-07T07:01:21.367Z,108
2018-02-07T07:02:30.186Z,116
2018-02-07T07:03:39.107Z,128
2018-02-07T07:04:47.927Z,136
2018-02-07T07:05:56.750Z,148
2018-02-07T07:07:05.571Z,160
2018-02-07T07:08:14.390Z,172
2018-02-07T07:09:23.312Z,184
2018-02-07T07:10:32.134Z,196
2018-02-07T07:11:40.954Z,208
2018-02-07T07:12:49.773Z,220
2018-02-07T07:13:58.593Z,236
2018-02-07T07:15:07.564Z,252
2018-02-07T07:16:16.389Z,264
2018-02-07T07:17:25.209Z,280
2018-02-07T07:18:34.030Z,296
2018-02-07T07:19:43.129Z,308
2018-02-07T07:20:52.000Z,324
2018-02-07T07:22:00.833Z,336
2018-02-07T07:23:09.653Z,352
2018-02-07T07:24:18.752Z,364
2018-02-07T07:25:27.570Z,380
2018-02-07T07:26:36.494Z,396
2018-02-07T07:27:45.315Z,408
2018-02-07T07:28:54.135Z,420
2018-02-07T07:30:02.955Z,432
2018-02-07T07:31:11.774Z,452
2018-02-07T07:32:20.744Z,460
2018-02-07T07:33:29.566Z,476
2018-02-07T07:34:38.388Z,488
2018-02-07T07:35:47.208Z,500
2018-02-07T07:36:56.027Z,512
2018-02-07T07:38:04.846Z,528
2018-02-07T07:39:13.667Z,544
2018-02-07T07:40:22.490Z,552
2018-02-07T07:41:31.312Z,564
2018-02-07T07:42:40.130Z,576
2018-02-07T07:43:49.049Z,588
2018-02-07T07:44:57.869Z,604
2018-02-07T07:46:06.970Z,612
2018-02-07T07:47:15.792Z,628
2018-02-07T07:48:24.612Z,636
2018-02-07T07:49:33.530Z,648
2018-02-07T07:50:42.348Z,656
2018-02-07T07:51:51.167Z,664
2018-02-07T07:52:59.989Z,676
2018-02-07T07:54:08.811Z,684
2018-02-07T07:55:17.782Z,700
2018-02-07T07:56:26.603Z,708
2018-02-07T07:57:35.421Z,720
2018-02-07T07:58:44.523Z,732
2018-02-07T07:59:53.341Z,740
2018-02-07T08:01:02.458Z,748
2018-02-07T08:02:11.279Z,756
2018-02-07T08:03:20.097Z,772
2018-02-07T08:04:28.916Z,780
2018-02-07T08:05:37.737Z,784
2018-02-07T08:06:46.758Z,796
2018-02-07T08:07:55.579Z,804
2018-02-07T08:09:04.400Z,816
2018-02-07T08:10:13.221Z,824
2018-02-07T08:11:22.323Z,832
2018-02-07T08:12:31.516Z,840
2018-02-07T08:13:40.335Z,852
2018-02-07T08:14:49.155Z,856
2018-02-07T08:15:57.976Z,860
2018-02-07T08:17:06.795Z,876
2018-02-07T08:18:15.667Z,880
2018-02-07T08:19:24.487Z,892
2018-02-07T08:20:33.309Z,896
2018-02-07T08:21:42.128Z,904
2018-02-07T08:22:50.949Z,912
2018-02-07T08:23:59.920Z,920
2018-02-07T08:25:08.742Z,932
2018-02-07T08:26:17.563Z,936
2018-02-07T08:27:26.383Z,940
2018-02-07T08:28:35.204Z,944
2018-02-07T08:29:44.126Z,952
2018-02-07T08:30:52.947Z,964
2018-02-07T08:32:01.769Z,972
2018-02-07T08:33:10.592Z,976
2018-02-07T08:34:19.684Z,984
2018-02-07T08:35:28.706Z,988
2018-02-07T08:36:37.531Z,988
2018-02-07T08:37:46.346Z,1000
2018-02-07T08:38:55.440Z,1004
2018-02-07T08:40:04.262Z,1004
2018-02-07T08:41:13.180Z,1012
2018-02-07T08:42:22.000Z,1016
2018-02-07T08:43:30.823Z,1024
2018-02-07T08:44:39.644Z,1028
2018-02-07T08:45:48.467Z,1032
2018-02-07T08:46:57.440Z,1040
2018-02-07T08:48:06.262Z,1048
2018-02-07T08:49:15.083Z,1052
2018-02-07T08:50:23.903Z,1056
2018-02-07T08:51:32.725Z,1064
2018-02-07T08:52:41.923Z,1064
2018-02-07T08:53:50.745Z,1072
2018-02-07T08:54:59.842Z,1076
2018-02-07T08:56:08.663Z,1084
2018-02-07T08:57:17.486Z,1088
2018-02-07T08:58:26.309Z,1092
2018-02-07T08:59:35.403Z,1100
2018-02-07T09:00:44.224Z,1108
2018-02-07T09:01:53.046Z,1112
2018-02-07T09:03:01.869Z,1120
2018-02-07T09:04:10.841Z,1124
2018-02-07T09:05:19.939Z,1132
2018-02-07T09:06:28.762Z,1140
2018-02-07T09:07:37.581Z,1144
2018-02-07T09:08:46.402Z,1152
2018-02-07T09:09:55.325Z,1156
2018-02-07T09:11:04.149Z,1160
2018-02-07T09:12:12.971Z,1168
2018-02-07T09:13:22.072Z,1172
2018-02-07T09:14:30.890Z,1172
2018-02-07T09:15:39.812Z,1172
2018-02-07T09:16:48.634Z,1184
2018-02-07T09:17:57.458Z,1188
2018-02-07T09:19:06.279Z,1188
2018-02-07T09:20:15.101Z,1196
2018-02-07T09:21:24.263Z,1200
2018-02-07T09:22:33.047Z,1172
2018-02-07T09:23:41.865Z,1208
2018-02-07T09:24:50.689Z,1172
2018-02-07T09:25:59.513Z,1232
2018-02-07T09:27:08.335Z,1236
2018-02-07T09:28:17.158Z,1240
2018-02-07T09:29:26.260Z,1244
2018-02-07T09:30:35.075Z,1252
2018-02-07T09:31:43.904Z,1264
2018-02-07T09:32:52.775Z,1260
2018-02-07T09:34:01.597Z,1268
2018-02-07T09:35:10.421Z,1276
2018-02-07T09:36:19.244Z,1292
2018-02-07T09:37:28.339Z,1284
2018-02-07T09:38:37.313Z,1288
2018-02-07T09:39:46.136Z,1300
2018-02-07T09:40:54.960Z,1296
2018-02-07T09:42:03.783Z,1304
2018-02-07T09:43:12.612Z,1308
2018-02-07T09:44:21.437Z,1312
2018-02-07T09:45:30.537Z,1320
2018-02-07T09:46:39.362Z,1328
2018-02-07T09:47:48.186Z,1332
2018-02-07T09:48:57.010Z,1332
2018-02-07T09:50:05.937Z,1336
2018-02-07T09:51:14.758Z,1348
2018-02-07T09:52:23.582Z,1336
2018-02-07T09:53:32.404Z,1348
2018-02-07T09:54:41.228Z,1348
2018-02-07T09:55:50.108Z,1360
2018-02-07T09:56:58.927Z,1364
2018-02-07T09:58:07.751Z,1364
2018-02-07T09:59:16.574Z,1380
2018-02-07T10:00:25.398Z,1380
2018-02-07T10:01:34.220Z,1384
2018-02-07T10:02:43.043Z,1388
2018-02-07T10:03:51.866Z,1388
2018-02-07T10:05:00.687Z,1404
2018-02-07T10:06:09.513Z,1416
2018-02-07T10:07:18.438Z,1412
2018-02-07T10:08:27.263Z,1420
2018-02-07T10:09:36.087Z,1420
2018-02-07T10:10:44.911Z,1428
2018-02-07T10:11:53.734Z,1448
2018-02-07T10:13:02.608Z,1452
2018-02-07T10:14:11.431Z,1464
2018-02-07T10:15:20.254Z,1468
2018-02-07T10:16:29.078Z,1484
2018-02-07T10:17:38.176Z,1488
2018-02-07T10:18:47.102Z,1488
2018-02-07T10:19:55.926Z,1504
2018-02-07T10:21:04.754Z,1508
2018-02-07T10:22:13.577Z,1508
2018-02-07T10:23:22.401Z,1516
2018-02-07T10:24:31.325Z,1520
2018-02-07T10:25:40.148Z,1520
2018-02-07T10:26:48.973Z,1528
2018-02-07T10:27:57.795Z,1524
2018-02-07T10:29:06.621Z,1540
2018-02-07T10:30:15.598Z,1548
2018-02-07T10:31:24.421Z,1556
2018-02-07T10:32:33.244Z,1560
2018-02-07T10:33:42.066Z,1576
2018-02-07T10:34:50.893Z,1592
2018-02-07T10:36:00.143Z,1600
2018-02-07T10:37:08.968Z,1596
2018-02-07T10:38:17.790Z,1592
2018-02-07T10:39:26.619Z,1604
2018-02-07T10:40:35.444Z,1612
2018-02-07T10:41:44.368Z,1620
2018-02-07T10:42:53.190Z,1632
2018-02-07T10:44:02.018Z,1648
2018-02-07T10:45:10.850Z,1664
2018-02-07T10:46:19.672Z,1668
2018-02-07T10:47:28.498Z,1672
2018-02-07T10:48:37.325Z,1684
2018-02-07T10:49:46.154Z,1688
2018-02-07T10:50:55.249Z,1692
2018-02-07T10:52:04.320Z,1692
2018-02-07T10:53:13.383Z,1712
2018-02-07T10:54:22.207Z,1708
2018-02-07T10:55:31.033Z,1696
2018-02-07T10:56:40.133Z,1712
2018-02-07T10:57:48.960Z,1716
2018-02-07T10:58:57.838Z,1716
2018-02-07T11:00:06.936Z,1736
2018-02-07T11:01:16.348Z,1744
2018-02-07T11:02:25.405Z,1760
2018-02-07T11:03:34.271Z,1776
2018-02-07T11:04:43.394Z,1760
2018-02-07T11:05:52.975Z,1768
2018-02-07T11:07:02.280Z,1784
2018-02-07T11:08:11.151Z,1800
2018-02-07T11:09:20.026Z,1820
2018-02-07T11:10:29.595Z,1824
2018-02-07T11:11:38.920Z,1832
2018-02-07T11:12:47.996Z,1832
2018-02-07T11:13:57.140Z,1844
2018-02-07T11:15:06.269Z,1868
2018-02-07T11:16:15.247Z,1860
2018-02-07T11:17:24.522Z,1868
2018-02-07T11:18:33.600Z,1880
2018-02-07T11:19:42.772Z,1884
2018-02-07T11:20:51.846Z,1900
2018-02-07T11:22:01.295Z,1908
2018-02-07T11:23:10.428Z,1916
2018-02-07T11:24:19.476Z,1912
2018-02-07T11:25:29.121Z,1916
2018-02-07T11:26:37.996Z,1936
2018-02-07T11:27:47.458Z,1920
2018-02-07T11:28:56.743Z,1916
2018-02-07T11:30:06.323Z,1940
2018-02-07T11:31:15.411Z,1932
2018-02-07T11:32:24.308Z,1940
2018-02-07T11:33:33.305Z,1960
2018-02-07T11:34:42.664Z,1984
2018-02-07T11:35:51.571Z,1988
2018-02-07T11:37:00.734Z,2012
2018-02-07T11:38:09.868Z,2048
2018-02-07T11:39:19.178Z,2076
2018-02-07T11:40:28.246Z,2076
2018-02-07T11:41:37.331Z,2100
2018-02-07T11:42:46.665Z,2112
2018-02-07T11:43:55.754Z,2120
2018-02-07T11:45:05.140Z,2108
2018-02-07T11:46:13.991Z,2100
2018-02-07T11:47:23.576Z,2100
2018-02-07T11:48:32.483Z,2088
2018-02-07T11:49:41.312Z,2092
2018-02-07T11:50:50.238Z,2096
2018-02-07T11:51:59.161Z,2088
2018-02-07T11:53:08.498Z,2096
2018-02-07T11:54:17.331Z,2112
2018-02-07T11:55:26.158Z,2124
2018-02-07T11:56:35.579Z,2136
2018-02-07T11:57:45.386Z,2156
2018-02-07T11:58:54.792Z,2156
2018-02-07T12:00:03.917Z,2172
2018-02-07T12:01:12.954Z,2188
2018-02-07T12:02:21.930Z,2224
2018-02-07T12:03:30.779Z,2252
2018-02-07T12:04:39.888Z,2284
2018-02-07T12:05:48.683Z,2316
2018-02-07T12:06:57.537Z,2340
2018-02-07T12:08:06.363Z,2360
2018-02-07T12:09:15.677Z,2388
2018-02-07T12:10:24.505Z,2408
2018-02-07T12:11:33.366Z,2400
2018-02-07T12:12:42.226Z,2376
2018-02-07T12:13:51.230Z,2360
2018-02-07T12:15:00.536Z,2340
2018-02-07T12:16:09.371Z,2336
2018-02-07T12:17:18.206Z,2348
2018-02-07T12:18:27.037Z,2360
2018-02-07T12:19:36.161Z,2368
2018-02-07T12:20:45.055Z,2392
2018-02-07T12:21:54.497Z,2408
2018-02-07T12:23:03.590Z,2420
2018-02-07T12:24:12.621Z,2416
2018-02-07T12:25:22.049Z,2420
2018-02-07T12:26:31.397Z,2424
2018-02-07T12:27:40.490Z,2420
2018-02-07T12:28:49.557Z,2420
2018-02-07T12:29:58.405Z,2424
2018-02-07T12:31:07.526Z,2436
2018-02-07T12:32:16.387Z,2456
2018-02-07T12:33:25.530Z,2476
2018-02-07T12:34:34.417Z,2500
2018-02-07T12:35:43.257Z,2520
2018-02-07T12:36:52.309Z,2524
2018-02-07T12:38:01.145Z,2520
2018-02-07T12:39:10.030Z,2520
2018-02-07T12:40:18.895Z,2516
2018-02-07T12:41:27.950Z,2508
2018-02-07T12:42:36.948Z,2496
2018-02-07T12:43:46.110Z,2500
2018-02-07T12:44:54.950Z,2504
2018-02-07T12:46:04.076Z,2512
2018-02-07T12:47:13.108Z,2520
2018-02-07T12:48:22.123Z,2504
2018-02-07T12:49:30.970Z,2476
2018-02-07T12:50:40.056Z,2460
2018-02-07T12:51:48.882Z,2456
2018-02-07T12:52:57.708Z,2456
2018-02-07T12:54:06.635Z,2472
2018-02-07T12:55:15.740Z,2500
2018-02-07T12:56:24.841Z,2524
2018-02-07T12:57:33.723Z,2536
2018-02-07T12:58:42.494Z,2544
2018-02-07T12:59:51.372Z,2540
2018-02-07T13:01:00.197Z,2520
2018-02-07T13:02:09.032Z,2500
2018-02-07T13:03:17.854Z,2480
2018-02-07T13:04:26.679Z,2476
2018-02-07T13:05:35.613Z,2484
2018-02-07T13:06:44.464Z,2500
2018-02-07T13:07:53.311Z,2504
2018-02-07T13:09:02.582Z,2508
2018-02-07T13:10:11.513Z,2516
2018-02-07T13:11:20.748Z,2524
2018-02-07T13:12:29.676Z,2536
2018-02-07T13:13:38.525Z,2556
2018-02-07T13:14:47.353Z,2620
2018-02-07T13:15:56.187Z,3592
2018-02-07T13:17:05.126Z,7252
2018-02-07T13:18:13.952Z,5928
2018-02-07T13:19:22.780Z,6660
2018-02-07T13:20:31.610Z,4520
2018-02-07T13:21:40.453Z,4292
2018-02-07T13:22:49.281Z,7952
2018-02-07T13:23:58.130Z,8664
2018-02-07T13:25:07.517Z,4584
2018-02-07T13:26:16.676Z,3996
2018-02-07T13:27:25.453Z,4316
2018-02-07T13:28:34.384Z,2712
2018-02-07T13:29:43.418Z,4600
2018-02-07T13:30:52.249Z,10812
2018-02-07T13:32:01.077Z,11964
2018-02-07T13:33:09.906Z,8404
2018-02-07T13:34:19.034Z,4840
2018-02-07T13:35:27.864Z,2648
2018-02-07T13:36:36.693Z,2608
2018-02-07T13:37:45.522Z,2564
2018-02-07T13:38:54.351Z,2576
2018-02-07T13:40:03.758Z,2608
2018-02-07T13:41:12.587Z,3124
2018-02-07T13:42:21.412Z,3276
2018-02-07T13:43:30.243Z,2776
2018-02-07T13:44:39.073Z,2848
2018-02-07T13:45:48.202Z,2800
2018-02-07T13:46:57.032Z,2704
2018-02-07T13:48:05.861Z,2668
2018-02-07T13:49:14.688Z,2636
2018-02-07T13:50:23.518Z,2612
2018-02-07T13:51:32.345Z,2608
2018-02-07T13:52:41.174Z,2632
2018-02-07T13:53:50.001Z,2620
2018-02-07T13:54:58.830Z,2644
2018-02-07T13:56:07.661Z,2668
2018-02-07T13:57:16.640Z,2624
2018-02-07T13:58:25.469Z,2624
2018-02-07T13:59:34.307Z,2680
2018-02-07T14:00:43.143Z,3472
2018-02-07T14:01:51.981Z,5668
2018-02-07T14:03:00.968Z,9240
2018-02-07T14:04:09.797Z,12036
2018-02-07T14:05:18.627Z,11440
2018-02-07T14:06:27.455Z,10692
2018-02-07T14:07:36.287Z,11508
2018-02-07T14:08:45.371Z,11612
2018-02-07T14:09:54.273Z,8884
2018-02-07T14:11:03.106Z,5952
2018-02-07T14:12:11.938Z,5276
2018-02-07T14:13:20.813Z,7544
2018-02-07T14:14:30.029Z,8572
2018-02-07T14:15:38.858Z,8608
2018-02-07T14:16:47.703Z,5020
2018-02-07T14:17:56.816Z,2804
2018-02-07T14:19:05.645Z,3980
2018-02-07T14:20:14.579Z,6184
2018-02-07T14:21:23.420Z,5028
2018-02-07T14:22:32.252Z,6960
2018-02-07T14:23:41.570Z,11108
2018-02-07T14:24:50.402Z,8124
2018-02-07T14:25:59.335Z,7212
2018-02-07T14:27:08.168Z,10340
2018-02-07T14:28:17.001Z,10508
2018-02-07T14:29:25.834Z,12272
2018-02-07T14:30:34.942Z,12024
2018-02-07T14:31:43.827Z,10720
2018-02-07T14:32:52.661Z,10368
2018-02-07T14:34:01.497Z,8732
2018-02-07T14:35:10.330Z,8032
2018-02-07T14:36:19.443Z,7416
2018-02-07T14:37:28.846Z,6716
2018-02-07T14:38:37.681Z,7504
2018-02-07T14:39:46.515Z,7440
2018-02-07T14:40:55.348Z,7312
2018-02-07T14:42:04.182Z,7008
2018-02-07T14:43:13.845Z,6168
2018-02-07T14:44:22.675Z,6360
2018-02-07T14:45:31.509Z,7080
2018-02-07T14:46:40.346Z,7804
2018-02-07T14:47:49.181Z,6700
2018-02-07T14:48:58.590Z,5896
2018-02-07T14:50:07.425Z,6616
2018-02-07T14:51:16.534Z,7004
2018-02-07T14:52:25.366Z,6756
2018-02-07T14:53:34.199Z,5988
2018-02-07T14:54:43.241Z,5168
2018-02-07T14:55:52.076Z,5180
2018-02-07T14:57:01.183Z,5788
2018-02-07T14:58:10.017Z,5492
2018-02-07T14:59:18.851Z,5412
2018-02-07T15:00:27.940Z,5528
2018-02-07T15:01:36.769Z,4640
2018-02-07T15:02:45.598Z,3612
2018-02-07T15:03:54.432Z,3492
2018-02-07T15:05:03.265Z,3024
2018-02-07T15:06:12.148Z,2748
2018-02-07T15:07:20.982Z,2660
2018-02-07T15:08:29.816Z,2856
2018-02-07T15:09:38.649Z,3148
2018-02-07T15:10:47.481Z,2920
2018-02-07T15:11:56.364Z,2656
2018-02-07T15:13:05.196Z,3032
2018-02-07T15:14:14.030Z,3060
2018-02-07T15:15:22.915Z,2980
2018-02-07T15:16:31.744Z,2812
2018-02-07T15:17:40.850Z,2640
2018-02-07T15:18:49.727Z,2800
2018-02-07T15:19:58.597Z,2420
2018-02-07T15:21:07.428Z,3060
2018-02-07T15:22:16.556Z,3696
2018-02-07T15:23:25.814Z,2896
2018-02-07T15:24:34.645Z,2696
2018-02-07T15:25:43.748Z,2912
2018-02-07T15:26:52.580Z,2564
2018-02-07T15:28:01.411Z,2148
2018-02-07T15:29:10.629Z,1496
2018-02-07T15:30:19.525Z,1368
2018-02-07T15:31:28.629Z,1336
2018-02-07T15:32:37.737Z,1300
2018-02-07T15:33:46.568Z,1268
2018-02-07T15:34:55.549Z,1240
2018-02-07T15:36:04.432Z,1204
2018-02-07T15:37:13.303Z,1164
2018-02-07T15:38:22.132Z,1128
2018-02-07T15:39:30.962Z,1096
2018-02-07T15:40:40.116Z,1060
2018-02-07T15:41:50.199Z,1020
2018-02-07T15:42:59.336Z,984
2018-02-07T15:44:08.181Z,948
2018-02-07T15:45:17.310Z,916
2018-02-07T15:46:26.142Z,884
2018-02-07T15:47:34.971Z,848
2018-02-07T15:48:43.800Z,816
2018-02-07T15:49:52.628Z,780
2018-02-07T15:51:01.455Z,744
2018-02-07T15:52:10.284Z,712
2018-02-07T15:53:19.112Z,680
2018-02-07T15:54:27.941Z,648
2018-02-07T15:55:36.770Z,616
2018-02-07T15:56:45.599Z,588
2018-02-07T15:57:54.427Z,560
2018-02-07T15:59:03.256Z,532
2018-02-07T16:00:12.360Z,504
2018-02-07T16:01:21.191Z,472